Terminal Aerodrome Forecast
Issued by NWS

Home | Current Version | Previous Version | Text Only | Print | Product List | Glossary On
Versions: 1 2 3 4 5 6 7 8 9 10 11 12 13 14 15 16 17
000
FTUS43 KAPX 011100
TAFTVC
TAF
KTVC 011120Z 0112/0212 VRB03KT P6SM FEW090
     FM011700 36006KT P6SM SCT060
     FM020100 00000KT P6SM SCT090=

USA.gov is the U.S. government's official web portal to all federal, state and local government web resources and services.